Time;durP1;ratioP1;P1;durP2;ratioP2;P2;SDS_P1;SDS_P2;PMS_P1;PMS_P2;Temp;Humidity;BMP_temperature;BMP_pressure;BME280_temperature;BME280_humidity;BME280_pressure;Samples;Min_cycle;Max_cycle;Signal;HPM_P1;HPM_P2
2022/11/28 00:00:15;;;;;;;1999.90;999.90;;;;;;;1.73;100.00;94699.34;4980872;28;20182;-64
2022/11/28 00:02:41;;;;;;;1999.90;999.90;;;;;;;1.78;100.00;94698.25;4980974;28;20180;-66
2022/11/28 00:05:10;;;;;;;1999.90;999.90;;;;;;;1.78;100.00;94693.63;4980273;28;20297;-64
2022/11/28 00:07:35;;;;;;;1999.90;999.90;;;;;;;1.77;100.00;94692.06;4980930;28;20191;-63
2022/11/28 00:10:00;;;;;;;1999.90;999.90;;;;;;;1.78;100.00;94685.56;4980856;28;20198;-66
2022/11/28 00:12:27;;;;;;;1999.90;999.90;;;;;;;1.80;100.00;94687.88;4980192;28;20174;-66
2022/11/28 00:14:53;;;;;;;1999.90;999.90;;;;;;;1.80;100.00;94683.28;4980760;28;20168;-66
2022/11/28 00:17:18;;;;;;;1999.90;999.90;;;;;;;1.79;100.00;94679.03;4980118;28;20183;-66
2022/11/28 00:19:44;;;;;;;1999.90;999.90;;;;;;;1.77;100.00;94683.22;4980616;28;20183;-67
2022/11/28 00:22:09;;;;;;;1999.90;999.90;;;;;;;1.74;100.00;94683.94;4980642;28;20178;-66
2022/11/28 00:24:34;;;;;;;1999.90;999.90;;;;;;;1.80;100.00;94677.91;4979932;28;20175;-66
2022/11/28 00:27:00;;;;;;;1999.90;999.90;;;;;;;1.79;100.00;94689.03;4979576;28;20177;-62
2022/11/28 00:29:25;;;;;;;1999.90;999.90;;;;;;;1.82;100.00;94681.00;4980144;28;20196;-66
2022/11/28 00:31:50;;;;;;;1999.90;999.90;;;;;;;1.69;100.00;94703.88;4979810;28;20181;-66
2022/11/28 00:34:16;;;;;;;1999.90;999.90;;;;;;;1.83;100.00;94693.31;4979662;28;20172;-65
2022/11/28 00:36:44;;;;;;;1999.90;999.90;;;;;;;1.86;100.00;94700.63;4979830;28;20224;-65
2022/11/28 00:39:09;;;;;;;1999.90;999.90;;;;;;;1.78;100.00;94693.63;4979946;28;20177;-65
2022/11/28 00:41:34;;;;;;;1999.90;999.90;;;;;;;1.82;100.00;94702.50;4979709;28;20180;-65
2022/11/28 00:44:00;;;;;;;1999.90;999.90;;;;;;;1.85;100.00;94703.69;4979910;28;20341;-64
2022/11/28 00:46:27;;;;;;;1999.90;999.90;;;;;;;1.86;100.00;94711.41;4979699;28;20274;-62
2022/11/28 00:48:53;;;;;;;1999.90;999.90;;;;;;;1.92;100.00;94715.34;4979665;28;20187;-66
2022/11/28 00:51:22;;;;;;;1999.90;999.90;;;;;;;1.96;100.00;94721.53;4979474;28;20227;-64
2022/11/28 00:53:49;;;;;;;1999.90;999.90;;;;;;;1.94;100.00;94718.47;4978434;28;20179;-65
2022/11/28 00:56:18;;;;;;;1999.90;999.90;;;;;;;1.91;100.00;94708.41;4979314;28;20229;-64
2022/11/28 00:58:43;;;;;;;1999.90;999.90;;;;;;;1.90;100.00;94712.22;4979914;28;20205;-65
2022/11/28 01:01:16;;;;;;;1999.90;999.90;;;;;;;1.86;100.00;94713.34;4979508;28;20176;-64
2022/11/28 01:03:42;;;;;;;1999.90;999.90;;;;;;;1.79;100.00;94714.00;4979346;28;20196;-66
2022/11/28 01:06:09;;;;;;;1999.90;999.90;;;;;;;1.81;100.00;94705.56;4979319;28;20205;-64
2022/11/28 01:08:35;;;;;;;1999.90;999.90;;;;;;;1.80;100.00;94704.81;4979817;28;20237;-64
2022/11/28 01:11:01;;;;;;;1999.90;999.90;;;;;;;1.75;100.00;94704.34;4978806;28;20212;-64
2022/11/28 01:13:27;;;;;;;1999.90;999.90;;;;;;;1.82;100.00;94702.50;4979805;28;20179;-64
2022/11/28 01:15:52;;;;;;;1999.90;999.90;;;;;;;1.84;100.00;94702.94;4979025;28;20178;-65
2022/11/28 01:18:18;;;;;;;1999.90;999.90;;;;;;;1.77;100.00;94696.69;4979103;28;20191;-65
2022/11/28 01:20:43;;;;;;;1999.90;999.90;;;;;;;1.64;100.00;94698.81;4978939;28;20212;-65
2022/11/28 01:23:09;;;;;;;1999.90;999.90;;;;;;;1.64;100.00;94692.66;4978985;28;20221;-66
2022/11/28 01:25:34;;;;;;;1999.90;999.90;;;;;;;1.58;100.00;94696.81;4979478;28;20182;-64
2022/11/28 01:28:00;;;;;;;1999.90;999.90;;;;;;;1.59;100.00;94680.31;4979399;28;20182;-65
2022/11/28 01:30:25;;;;;;;1999.90;999.90;;;;;;;1.62;100.00;94676.88;4978714;28;20351;-65
2022/11/28 01:32:50;;;;;;;1999.90;999.90;;;;;;;1.52;100.00;94674.81;4978788;28;20179;-65
2022/11/28 01:35:16;;;;;;;1999.90;999.90;;;;;;;1.52;100.00;94676.72;4978687;28;20544;-64
2022/11/28 01:37:41;;;;;;;1999.90;999.90;;;;;;;1.51;100.00;94672.50;4978836;28;20245;-64
2022/11/28 01:40:09;;;;;;;1999.90;999.90;;;;;;;1.48;100.00;94663.25;4978244;28;20185;-67
2022/11/28 01:42:34;;;;;;;1999.90;999.90;;;;;;;1.50;100.00;94662.88;4978769;28;20189;-64
2022/11/28 01:45:06;;;;;;;1999.90;999.90;;;;;;;1.50;100.00;94660.97;4978505;28;20581;-65
2022/11/28 01:47:32;;;;;;;1999.90;999.90;;;;;;;1.52;100.00;94656.00;4979138;28;20205;-65
2022/11/28 01:49:59;;;;;;;1999.90;999.90;;;;;;;1.52;100.00;94647.91;4978201;28;20250;-65
2022/11/28 01:52:25;;;;;;;1999.90;999.90;;;;;;;1.55;100.00;94652.56;4978387;28;20173;-65
2022/11/28 01:54:56;;;;;;;1999.90;999.90;;;;;;;1.63;100.00;94659.59;4978237;28;20226;-65
2022/11/28 01:57:24;;;;;;;1999.90;999.90;;;;;;;1.63;100.00;94653.44;4979005;28;20180;-67
2022/11/28 02:00:02;;;;;;;1999.90;999.90;;;;;;;1.54;100.00;94640.28;4978426;28;20179;-63
2022/11/28 02:02:48;;;;;;;1999.90;999.90;;;;;;;1.47;100.00;94629.41;4978593;28;20190;-65
2022/11/28 02:05:15;;;;;;;1999.90;999.90;;;;;;;1.49;100.00;94627.13;4978090;28;20214;-65
2022/11/28 02:07:42;;;;;;;1999.90;999.90;;;;;;;1.53;100.00;94633.31;4978354;28;20184;-65
2022/11/28 02:10:11;;;;;;;1999.90;999.90;;;;;;;1.57;100.00;94644.91;4978046;28;20210;-65
2022/11/28 02:13:01;;;;;;;1999.90;999.90;;;;;;;1.65;100.00;94667.31;4978224;28;20187;-66
2022/11/28 02:15:49;;;;;;;1999.90;999.90;;;;;;;1.76;100.00;94670.91;4978383;28;20270;-66
2022/11/28 02:18:27;;;;;;;1999.90;999.90;;;;;;;1.80;100.00;94674.41;4978319;28;20175;-66
2022/11/28 02:21:11;;;;;;;1999.90;999.90;;;;;;;1.86;100.00;94668.34;4977865;28;20187;-66
2022/11/28 02:24:17;;;;;;;1999.90;999.90;;;;;;;1.90;100.00;94650.31;4978835;28;20180;-65
2022/11/28 02:26:59;;;;;;;1999.90;999.90;;;;;;;1.89;100.00;94653.41;4977781;28;20187;-67
2022/11/28 02:29:30;;;;;;;1999.90;999.90;;;;;;;1.95;100.00;94649.22;4978615;28;20191;-64
2022/11/28 02:32:11;;;;;;;1999.90;999.90;;;;;;;1.86;100.00;94656.81;4977915;28;20175;-64
2022/11/28 02:34:55;;;;;;;1999.90;999.90;;;;;;;1.88;100.00;94666.09;4977612;28;20191;-64
2022/11/28 02:37:28;;;;;;;1999.90;999.90;;;;;;;1.80;100.00;94653.69;4978008;28;20178;-64
2022/11/28 02:40:23;;;;;;;1999.90;999.90;;;;;;;1.87;100.00;94648.38;4978381;28;20210;-65
2022/11/28 02:43:23;;;;;;;1999.90;999.90;;;;;;;1.84;100.00;94651.81;4974752;28;20191;-65
2022/11/28 02:46:00;;;;;;;1999.90;999.90;;;;;;;1.87;100.00;94653.78;4965113;28;20194;-65
2022/11/28 02:48:35;;;;;;;1999.90;999.90;;;;;;;1.87;100.00;94658.38;4977728;28;20226;-65
2022/11/28 02:51:04;;;;;;;1999.90;999.90;;;;;;;1.91;100.00;94664.56;4978190;28;20209;-65
2022/11/28 02:53:32;;;;;;;1999.90;999.90;;;;;;;1.86;100.00;94646.81;4978341;28;20225;-62
2022/11/28 02:55:59;;;;;;;1999.90;999.90;;;;;;;1.85;100.00;94655.25;4977500;28;20351;-66
2022/11/28 02:58:25;;;;;;;1999.90;999.90;;;;;;;1.81;100.00;94647.16;4978593;28;20176;-65
2022/11/28 03:00:50;;;;;;;1999.90;999.90;;;;;;;1.78;100.00;94649.81;4977836;28;20176;-65
2022/11/28 03:03:22;;;;;;;1999.90;999.90;;;;;;;1.77;100.00;94637.47;4994665;28;20272;-64
2022/11/28 03:05:58;;;;;;;1999.90;999.90;;;;;;;1.70;100.00;94643.56;4977990;28;20206;-66
2022/11/28 03:08:51;;;;;;;1999.90;999.90;;;;;;;1.65;100.00;94638.50;4978546;28;20266;-65
2022/11/28 03:11:55;;;;;;;1999.90;999.90;;;;;;;1.71;100.00;94634.34;4978006;28;20233;-65
2022/11/28 03:14:35;;;;;;;1999.90;999.90;;;;;;;1.73;100.00;94632.06;4960725;28;20290;-65
2022/11/28 03:17:16;;;;;;;1999.90;999.90;;;;;;;1.74;100.00;94633.59;4978385;28;20175;-62
2022/11/28 03:19:48;;;;;;;1999.90;999.90;;;;;;;1.69;100.00;94652.78;4981909;28;20184;-63
2022/11/28 03:22:28;;;;;;;1999.90;999.90;;;;;;;1.76;100.00;94644.00;4981782;28;20233;-63
2022/11/28 03:25:01;;;;;;;1999.90;999.90;;;;;;;1.71;100.00;94634.34;4981632;28;20222;-63
2022/11/28 03:27:35;;;;;;;1999.90;999.90;;;;;;;1.74;100.00;94622.84;4981144;28;20622;-62
2022/11/28 03:30:08;;;;;;;1999.90;999.90;;;;;;;1.60;100.00;94625.34;4980767;28;20203;-62
2022/11/28 03:32:37;;;;;;;1999.90;999.90;;;;;;;1.68;100.00;94623.53;4981630;28;20180;-63
2022/11/28 03:35:08;;;;;;;1999.90;999.90;;;;;;;1.62;100.00;94617.69;4981447;28;20182;-66
2022/11/28 03:37:44;;;;;;;1999.90;999.90;;;;;;;1.58;100.00;94602.66;4980978;28;20183;-66
2022/11/28 03:40:16;;;;;;;1999.90;999.90;;;;;;;1.53;100.00;94598.34;4981339;28;20169;-66
2022/11/28 03:42:46;;;;;;;1999.90;999.90;;;;;;;1.56;100.00;94588.81;4981379;28;20177;-67
2022/11/28 03:45:19;;;;;;;1999.90;999.90;;;;;;;1.55;100.00;94593.41;4980724;28;20174;-66
2022/11/28 03:47:51;;;;;;;1999.90;999.90;;;;;;;1.52;100.00;94569.91;4981477;28;20206;-67
2022/11/28 03:50:25;;;;;;;1999.90;999.90;;;;;;;1.46;100.00;94566.00;4981193;28;20275;-65
2022/11/28 03:52:58;;;;;;;1999.90;999.90;;;;;;;1.48;100.00;94560.25;4980778;28;20174;-63
2022/11/28 03:55:38;;;;;;;1999.90;999.90;;;;;;;1.47;100.00;94556.81;4977664;28;20252;-64
2022/11/28 03:58:33;;;;;;;1999.90;999.90;;;;;;;1.41;100.00;94542.13;4977140;28;20176;-64
2022/11/28 04:01:35;;;;;;;1999.90;999.90;;;;;;;1.39;100.00;94525.59;4973206;28;20616;-64
2022/11/28 04:04:06;;;;;;;1999.90;999.90;;;;;;;1.44;100.00;94511.81;4976926;28;20199;-65
2022/11/28 04:06:50;;;;;;;1999.90;999.90;;;;;;;1.34;100.00;94517.09;4977172;28;20187;-64
2022/11/28 04:09:38;;;;;;;1999.90;999.90;;;;;;;1.37;100.00;94511.72;4977375;28;20234;-64
2022/11/28 04:12:09;;;;;;;1999.90;999.90;;;;;;;1.38;100.00;94502.50;4977668;28;20183;-64
2022/11/28 04:14:40;;;;;;;1999.90;999.90;;;;;;;1.35;100.00;94495.19;4977518;28;20178;-64
2022/11/28 04:17:18;;;;;;;1999.90;999.90;;;;;;;1.42;100.00;94492.56;4977587;28;20173;-66
2022/11/28 04:19:57;;;;;;;1999.90;999.90;;;;;;;1.45;100.00;94475.72;4977314;28;20176;-64
2022/11/28 04:22:36;;;;;;;1999.90;999.90;;;;;;;1.34;100.00;94474.81;4976725;28;20304;-64
2022/11/28 04:25:09;;;;;;;1999.90;999.90;;;;;;;1.38;100.00;94475.63;4977327;28;20175;-64
2022/11/28 04:27:42;;;;;;;1999.90;999.90;;;;;;;1.51;100.00;94465.41;4977434;28;20203;-62
2022/11/28 04:30:09;;;;;;;1999.90;999.90;;;;;;;1.45;100.00;94469.56;4976502;28;20254;-65
2022/11/28 04:32:39;;;;;;;1999.90;999.90;;;;;;;1.42;100.00;94449.53;4976824;28;20175;-66
2022/11/28 04:35:22;;;;;;;1999.90;999.90;;;;;;;1.48;100.00;94450.78;4976319;28;20179;-64
2022/11/28 04:37:50;;;;;;;1999.90;999.90;;;;;;;1.54;100.00;94435.88;4977224;28;20220;-65
2022/11/28 04:40:17;;;;;;;1999.90;999.90;;;;;;;1.52;100.00;94435.44;4976367;28;20235;-65
2022/11/28 04:42:48;;;;;;;1999.90;999.90;;;;;;;1.51;100.00;94436.59;4976737;28;20176;-64
2022/11/28 04:45:22;;;;;;;1999.90;999.90;;;;;;;1.67;100.00;94445.19;4976248;28;20180;-66
2022/11/28 04:47:47;;;;;;;1999.90;999.90;;;;;;;1.76;100.00;94436.81;4976968;28;20177;-66
2022/11/28 04:50:13;;;;;;;1999.90;999.90;;;;;;;1.84;100.00;94443.81;4976024;28;20296;-66
2022/11/28 04:52:51;;;;;;;1999.90;999.90;;;;;;;1.79;100.00;94447.59;4976304;28;20172;-65
2022/11/28 04:55:36;;;;;;;1999.90;999.90;;;;;;;1.82;100.00;94454.19;4976608;28;20224;-64
2022/11/28 04:58:10;;;;;;;1999.90;999.90;;;;;;;1.86;100.00;94469.19;4976272;28;20234;-66
2022/11/28 05:00:37;;;;;;;1999.90;999.90;;;;;;;1.90;100.00;94469.25;4976772;28;20253;-65
2022/11/28 05:03:03;;;;;;;1999.90;999.90;;;;;;;1.80;100.00;94481.47;4976300;28;20177;-64
2022/11/28 05:05:29;;;;;;;1999.90;999.90;;;;;;;1.95;100.00;94477.75;4976557;28;20247;-68
2022/11/28 05:07:56;;;;;;;1999.90;999.90;;;;;;;1.90;100.00;94464.63;4976896;28;20172;-67
2022/11/28 05:10:22;;;;;;;1999.90;999.90;;;;;;;1.73;100.00;94449.09;4976384;28;20200;-66
2022/11/28 05:12:47;;;;;;;1999.90;999.90;;;;;;;1.56;100.00;94441.63;4976044;28;20184;-67
2022/11/28 05:15:17;;;;;;;1999.90;999.90;;;;;;;1.61;100.00;94419.78;4975648;28;20175;-67
2022/11/28 05:17:43;;;;;;;1999.90;999.90;;;;;;;1.64;100.00;94426.34;4975634;28;20172;-67
2022/11/28 05:20:10;;;;;;;1999.90;999.90;;;;;;;1.74;100.00;94474.84;4976627;28;20301;-68
2022/11/28 05:22:35;;;;;;;1999.90;999.90;;;;;;;1.86;100.00;94498.81;4975928;28;20204;-66
2022/11/28 05:25:00;;;;;;;1999.90;999.90;;;;;;;1.99;100.00;94488.53;4975511;28;20239;-65
2022/11/28 05:27:26;;;;;;;1999.90;999.90;;;;;;;2.07;100.00;94501.69;4975756;28;20235;-65
2022/11/28 05:29:52;;;;;;;1999.90;999.90;;;;;;;2.12;100.00;94508.69;4975388;28;20201;-64
2022/11/28 05:32:18;;;;;;;1999.90;999.90;;;;;;;2.14;100.00;94528.69;4975616;28;20270;-63
2022/11/28 05:34:43;;;;;;;1999.90;999.90;;;;;;;2.16;100.00;94521.03;4975761;28;20262;-64
2022/11/28 05:37:08;;;;;;;1999.90;999.90;;;;;;;2.16;100.00;94526.41;4975523;28;20184;-64
2022/11/28 05:39:34;;;;;;;1999.90;999.90;;;;;;;2.24;100.00;94532.63;4975097;28;20173;-63
2022/11/28 05:41:59;;;;;;;1999.90;999.90;;;;;;;2.23;100.00;94553.38;4975579;28;20176;-66
2022/11/28 05:44:25;;;;;;;1999.90;999.90;;;;;;;2.32;100.00;94559.25;4975833;28;20176;-64
2022/11/28 05:46:50;;;;;;;1999.90;999.90;;;;;;;2.37;100.00;94553.50;4975764;28;20240;-66
2022/11/28 05:49:16;;;;;;;1999.90;999.90;;;;;;;2.39;100.00;94562.00;4975895;28;20236;-66
2022/11/28 05:51:41;;;;;;;1999.90;999.90;;;;;;;2.43;100.00;94568.19;4974991;28;20177;-65
2022/11/28 05:54:06;;;;;;;1999.90;999.90;;;;;;;2.42;100.00;94582.81;4975799;28;20181;-67
2022/11/28 05:56:32;;;;;;;1999.90;999.90;;;;;;;2.43;100.00;94589.75;4975280;28;20284;-65
2022/11/28 05:58:57;;;;;;;1999.90;999.90;;;;;;;2.38;100.00;94608.97;4975087;28;20212;-64
2022/11/28 06:01:26;;;;;;;1999.90;999.90;;;;;;;2.39;100.00;94607.81;4976016;28;20318;-64
2022/11/28 06:03:57;;;;;;;1999.90;999.90;;;;;;;2.39;100.00;94609.72;4974751;28;20220;-65
2022/11/28 06:06:23;;;;;;;1999.90;999.90;;;;;;;2.42;100.00;94614.38;4975071;28;20254;-65
2022/11/28 06:08:51;;;;;;;1999.90;999.90;;;;;;;2.32;100.00;94631.97;4975657;28;20179;-66
2022/11/28 06:11:16;;;;;;;1999.90;999.90;;;;;;;2.36;100.00;94632.78;4974618;28;20204;-64
2022/11/28 06:13:44;;;;;;;1999.90;999.90;;;;;;;2.38;100.00;94641.28;4975039;28;20179;-65
2022/11/28 06:16:11;;;;;;;1999.90;999.90;;;;;;;2.44;100.00;94642.47;4974599;28;20176;-63
2022/11/28 06:18:37;;;;;;;1999.90;999.90;;;;;;;2.44;100.00;94645.16;4974825;28;20299;-64
2022/11/28 06:21:04;;;;;;;1999.90;999.90;;;;;;;2.31;100.00;94657.34;4974904;28;20173;-64
2022/11/28 06:23:30;;;;;;;1999.90;999.90;;;;;;;2.34;100.00;94658.53;4975080;28;20177;-64
2022/11/28 06:25:56;;;;;;;1999.90;999.90;;;;;;;2.40;100.00;94665.13;4974511;28;20179;-65
2022/11/28 06:28:22;;;;;;;1999.90;999.90;;;;;;;2.35;100.00;94655.47;4974774;28;20177;-64
2022/11/28 06:30:47;;;;;;;1999.90;999.90;;;;;;;2.35;100.00;94679.72;4974994;28;20208;-65
2022/11/28 06:33:12;;;;;;;1999.90;999.90;;;;;;;2.46;100.00;94690.59;4975373;28;20215;-64
2022/11/28 06:35:38;;;;;;;1999.90;999.90;;;;;;;2.46;100.00;94666.34;4974696;28;20172;-65
2022/11/28 06:38:03;;;;;;;1999.90;999.90;;;;;;;2.45;100.00;94687.13;4975054;28;20176;-64
2022/11/28 06:40:28;;;;;;;1999.90;999.90;;;;;;;2.51;100.00;94685.66;4974841;28;20200;-62
2022/11/28 06:42:54;;;;;;;1999.90;999.90;;;;;;;2.50;100.00;94678.72;4974780;28;20234;-62
2022/11/28 06:45:19;;;;;;;1999.90;999.90;;;;;;;2.43;100.00;94686.72;4975037;28;20173;-63
2022/11/28 06:47:44;;;;;;;1999.90;999.90;;;;;;;2.49;100.00;94687.16;4974773;28;20175;-62
2022/11/28 06:50:10;;;;;;;1999.90;999.90;;;;;;;2.51;100.00;94682.97;4975419;28;20204;-62
2022/11/28 06:52:35;;;;;;;1999.90;999.90;;;;;;;2.49;100.00;94689.88;4977792;28;20187;-62
2022/11/28 06:55:01;;;;;;;1999.90;999.90;;;;;;;2.49;100.00;94687.16;4979189;28;20279;-66
2022/11/28 06:57:31;;;;;;;1999.90;999.90;;;;;;;2.49;100.00;94687.97;4979445;28;20184;-66
2022/11/28 06:59:56;;;;;;;1999.90;999.90;;;;;;;2.45;100.00;94683.66;4979128;28;20183;-66
2022/11/28 07:02:23;;;;;;;1999.90;999.90;;;;;;;2.33;100.00;94678.53;4978090;28;20179;-67
2022/11/28 07:04:49;;;;;;;1999.90;999.90;;;;;;;2.23;100.00;94669.19;4978583;28;20192;-69
2022/11/28 07:07:14;;;;;;;1999.90;999.90;;;;;;;2.24;100.00;94656.50;4978727;28;20189;-66
2022/11/28 07:09:40;;;;;;;1999.90;999.90;;;;;;;2.28;100.00;94652.72;4978385;28;20198;-66
2022/11/28 07:12:05;;;;;;;1999.90;999.90;;;;;;;2.32;100.00;94653.50;4978174;28;20180;-63
2022/11/28 07:14:32;;;;;;;1999.90;999.90;;;;;;;2.46;100.00;94652.88;4978577;28;20274;-63
2022/11/28 07:16:57;;;;;;;1999.90;999.90;;;;;;;2.61;100.00;94652.66;4978035;28;20192;-64
2022/11/28 07:19:23;;;;;;;1999.90;999.90;;;;;;;2.60;100.00;94648.41;4977694;28;20177;-64
2022/11/28 07:21:49;;;;;;;1999.90;999.90;;;;;;;2.53;100.00;94644.88;4978081;28;20263;-64
2022/11/28 07:24:18;;;;;;;1999.90;999.90;;;;;;;2.44;100.00;94639.78;4977830;28;20231;-66
2022/11/28 07:26:46;;;;;;;1999.90;999.90;;;;;;;2.61;100.00;94649.97;4978070;28;20179;-64
2022/11/28 07:29:16;;;;;;;1999.90;999.90;;;;;;;2.74;100.00;94650.47;4977460;28;20180;-65
2022/11/28 07:31:43;;;;;;;1999.90;999.90;;;;;;;2.69;100.00;94659.66;4977883;28;20216;-65
2022/11/28 07:34:09;;;;;;;1999.90;999.90;;;;;;;2.69;100.00;94659.66;4977371;28;20204;-62
2022/11/28 07:36:35;;;;;;;1999.90;999.90;;;;;;;2.61;100.00;94674.22;4977911;28;20180;-61
2022/11/28 07:39:03;;;;;;;1999.90;999.90;;;;;;;2.70;100.00;94690.84;4978042;28;20271;-63
2022/11/28 07:41:28;;;;;;;1999.90;999.90;;;;;;;2.82;100.00;94687.91;4977362;28;20188;-61
2022/11/28 07:43:56;;;;;;;1999.90;999.90;;;;;;;2.88;100.00;94669.47;4977364;28;20183;-63
2022/11/28 07:46:22;;;;;;;1999.90;999.90;;;;;;;2.93;100.00;94678.00;4977767;28;20183;-63
2022/11/28 07:48:47;;;;;;;1999.90;999.90;;;;;;;2.95;100.00;94683.78;4977170;28;20184;-65
2022/11/28 07:51:16;;;;;;;1999.90;999.90;;;;;;;2.94;100.00;94679.53;4977987;28;20208;-64
2022/11/28 07:53:42;;;;;;;1999.90;999.90;;;;;;;2.98;100.00;94679.53;4977409;28;20316;-63
2022/11/28 07:56:12;;;;;;;1999.90;999.90;;;;;;;3.02;100.00;94685.75;4977347;28;20228;-63
2022/11/28 07:58:38;;;;;;;1999.90;999.90;;;;;;;3.00;100.00;94694.22;4977916;28;20173;-63
2022/11/28 08:01:08;;;;;;;1999.90;999.90;;;;;;;2.96;100.00;94706.13;4977385;28;20288;-63
2022/11/28 08:03:33;;;;;;;1999.90;999.90;;;;;;;3.01;100.00;94701.16;4976080;28;20223;-64
2022/11/28 08:06:03;;;;;;;1999.90;999.90;;;;;;;3.09;100.00;94710.06;4977472;28;20212;-64
2022/11/28 08:08:28;;;;;;;1999.90;999.90;;;;;;;2.96;100.00;94701.50;4978387;28;20180;-64
2022/11/28 08:10:59;;;;;;;1999.90;999.90;;;;;;;2.99;100.00;94703.44;4977121;28;20208;-66
2022/11/28 08:13:24;;;;;;;1999.90;999.90;;;;;;;2.96;100.00;94698.78;4977224;28;20185;-67
2022/11/28 08:15:50;;;;;;;1999.90;999.90;;;;;;;3.00;100.00;94693.44;4977317;28;20176;-64
2022/11/28 08:18:16;;;;;;;1999.90;999.90;;;;;;;3.08;100.00;94695.84;4977509;28;20193;-66
2022/11/28 08:20:41;;;;;;;1999.90;999.90;;;;;;;3.03;100.00;94708.88;4977523;28;20173;-65
2022/11/28 08:23:07;;;;;;;1999.90;999.90;;;;;;;3.11;100.00;94708.59;4976987;28;20208;-65
2022/11/28 08:25:32;;;;;;;1999.90;999.90;;;;;;;3.14;100.00;94718.59;4976939;28;20177;-61
2022/11/28 08:27:58;;;;;;;1999.90;999.90;;;;;;;3.29;100.00;94727.59;4977383;28;20172;-63
2022/11/28 08:30:23;;;;;;;1999.90;999.90;;;;;;;3.44;100.00;94735.44;4977013;28;20211;-59
2022/11/28 08:32:49;;;;;;;1999.90;999.90;;;;;;;3.58;100.00;94736.69;4976634;28;20181;-59
2022/11/28 08:35:15;;;;;;;1999.90;999.90;;;;;;;3.66;100.00;94747.16;4977184;28;20177;-60
2022/11/28 08:37:40;;;;;;;1999.90;999.90;;;;;;;3.73;100.00;94746.44;4976754;28;20223;-59
2022/11/28 08:40:06;;;;;;;1999.90;999.90;;;;;;;3.82;100.00;94755.75;4976284;28;20199;-59
2022/11/28 08:42:32;;;;;;;1999.90;999.90;;;;;;;3.89;100.00;94760.44;4976453;28;20228;-59
2022/11/28 08:44:57;;;;;;;1999.90;999.90;;;;;;;3.99;100.00;94770.53;4976696;28;20236;-60
2022/11/28 08:47:22;;;;;;;1999.90;999.90;;;;;;;4.03;100.00;94777.50;4976568;28;20620;-61
2022/11/28 08:49:48;;;;;;;1999.90;999.90;;;;;;;4.07;100.00;94789.09;4976091;28;20201;-61
2022/11/28 08:52:13;;;;;;;1999.90;999.90;;;;;;;4.04;100.00;94797.94;4976871;28;20231;-61
2022/11/28 08:54:39;;;;;;;1999.90;999.90;;;;;;;3.98;100.00;94812.19;4977384;28;20223;-60
2022/11/28 08:57:05;;;;;;;1999.90;999.90;;;;;;;3.94;100.00;94814.09;4979234;28;20176;-61
2022/11/28 08:59:30;;;;;;;1999.90;999.90;;;;;;;3.90;100.00;94826.78;4979094;28;20264;-61
2022/11/28 09:01:55;;;;;;;1999.90;999.90;;;;;;;4.02;100.00;94851.59;4979446;28;20196;-61
2022/11/28 09:04:22;;;;;;;1999.90;999.90;;;;;;;4.13;100.00;94852.44;4979458;28;20238;-63
2022/11/28 09:06:48;;;;;;;1999.90;999.90;;;;;;;4.16;100.00;94851.69;4979549;28;20263;-61
2022/11/28 09:09:13;;;;;;;1999.90;999.90;;;;;;;4.14;100.00;94877.50;4979803;28;20183;-62
2022/11/28 09:11:39;;;;;;;1999.90;999.90;;;;;;;4.30;100.00;94872.63;4980173;28;20203;-61
2022/11/28 09:14:04;;;;;;;1999.90;999.90;;;;;;;4.44;100.00;94875.44;4978860;28;20175;-62
2022/11/28 09:16:30;;;;;;;1999.90;999.90;;;;;;;4.52;100.00;94879.72;4978597;28;20168;-62
2022/11/28 09:18:57;;;;;;;1999.90;999.90;;;;;;;4.59;100.00;94890.56;4979016;28;20172;-62
2022/11/28 09:21:23;;;;;;;1999.90;999.90;;;;;;;4.57;100.00;94903.69;4979328;28;20201;-64
2022/11/28 09:23:48;;;;;;;1999.90;999.90;;;;;;;4.59;100.00;94921.06;4979112;28;20214;-65
2022/11/28 09:26:17;;;;;;;1999.90;999.90;;;;;;;4.72;100.00;94921.53;4978881;28;20208;-65
2022/11/28 09:28:43;;;;;;;1999.90;999.90;;;;;;;4.79;100.00;94929.69;4979427;28;20269;-64
2022/11/28 09:31:10;;;;;;;1999.90;999.90;;;;;;;4.91;100.00;94940.19;4996039;28;20229;-65
2022/11/28 09:33:35;;;;;;;1999.90;999.90;;;;;;;5.04;100.00;94934.09;4979026;28;20170;-65
2022/11/28 09:36:16;;;;;;;1999.90;999.90;;;;;;;5.08;100.00;94940.31;5113018;27;20549;-65
2022/11/28 09:38:42;;;;;;;1999.90;999.90;;;;;;;5.13;100.00;94941.88;5094377;28;20173;-64
2022/11/28 09:41:50;;;;;;;1999.90;999.90;;;;;;;5.15;100.00;94950.38;5095064;28;20507;-63
2022/11/28 09:44:35;;;;;;;1999.90;999.90;;;;;;;5.23;100.00;94957.38;5112420;28;20238;-62
2022/11/28 09:47:05;;;;;;;1999.90;999.90;;;;;;;5.35;100.00;94965.19;5094736;28;20695;-63
2022/11/28 09:49:36;;;;;;;1999.90;999.90;;;;;;;5.40;100.00;94971.00;5094307;28;20238;-63
2022/11/28 09:52:19;;;;;;;1999.90;999.90;;;;;;;5.50;100.00;94972.22;5094745;28;20170;-63
2022/11/28 09:54:51;;;;;;;1999.90;999.90;;;;;;;5.56;100.00;94986.91;5094740;28;20292;-63
2022/11/28 09:57:44;;;;;;;1999.90;999.90;;;;;;;5.70;100.00;94976.16;5094895;28;20182;-62
2022/11/28 10:00:16;;;;;;;1999.90;999.90;;;;;;;5.83;100.00;94975.44;5094620;28;20175;-62
2022/11/28 10:02:46;;;;;;;1999.90;999.90;;;;;;;5.82;100.00;94979.31;5093671;28;20256;-64
2022/11/28 10:05:32;;;;;;;1999.90;999.90;;;;;;;5.93;100.00;94984.75;5093934;28;20290;-63
2022/11/28 10:08:48;;;;;;;1999.90;999.90;;;;;;;6.11;100.00;94985.56;5094265;28;20174;-64
2022/11/28 10:11:43;;;;;;;1999.90;999.90;;;;;;;6.16;100.00;94994.09;5052356;28;20219;-63
2022/11/28 10:14:27;;;;;;;1999.90;999.90;;;;;;;6.19;100.00;94995.25;5069154;28;20262;-63
2022/11/28 10:17:19;;;;;;;1999.90;999.90;;;;;;;6.29;100.00;94998.00;5084831;28;20187;-62
2022/11/28 10:20:04;;;;;;;1999.90;999.90;;;;;;;6.18;100.00;95007.28;5075416;28;20727;-64
2022/11/28 10:22:40;;;;;;;1999.90;999.90;;;;;;;6.15;100.00;95002.59;5111684;28;20619;-63
2022/11/28 10:25:16;;;;;;;1999.90;999.90;;;;;;;6.30;100.00;95009.59;5093287;28;20165;-63
2022/11/28 10:27:42;;;;;;;1999.90;999.90;;;;;;;6.43;100.00;95013.50;5093833;28;20215;-63
2022/11/28 10:30:24;;;;;;;1999.90;999.90;;;;;;;6.33;100.00;95019.69;5092935;28;20177;-62
2022/11/28 10:33:21;;;;;;;1999.90;999.90;;;;;;;6.14;100.00;95017.31;5094126;28;20340;-63
2022/11/28 10:35:52;;;;;;;1999.90;999.90;;;;;;;6.08;100.00;95016.16;5093251;28;20235;-63
2022/11/28 10:38:24;;;;;;;1999.90;999.90;;;;;;;5.99;100.00;95004.91;5093752;28;20174;-67
2022/11/28 10:40:58;;;;;;;1999.90;999.90;;;;;;;6.07;100.00;95001.84;5092981;28;20202;-67
2022/11/28 10:43:42;;;;;;;1999.90;999.90;;;;;;;6.24;100.00;95005.75;5093700;28;20222;-65
2022/11/28 10:46:28;;;;;;;1999.90;999.90;;;;;;;6.10;100.00;94997.56;5088002;28;20179;-66
2022/11/28 10:48:54;;;;;;;1999.90;999.90;;;;;;;6.20;100.00;95008.44;5080158;28;20186;-65
2022/11/28 10:51:32;;;;;;;1999.90;999.90;;;;;;;6.12;100.00;95008.81;5079459;28;20245;-65
2022/11/28 10:54:23;;;;;;;1999.90;999.90;;;;;;;6.45;100.00;95005.78;5080258;28;20318;-63
2022/11/28 10:57:05;;;;;;;1999.90;999.90;;;;;;;6.45;100.00;95005.78;5079671;28;20175;-62
2022/11/28 10:59:47;;;;;;;1999.90;999.90;;;;;;;6.39;100.00;95004.59;5079505;28;20201;-63
2022/11/28 11:02:20;;;;;;;1999.90;999.90;;;;;;;6.59;100.00;95003.06;5079886;28;20182;-63
2022/11/28 11:04:46;;;;;;;1999.90;999.90;;;;;;;6.74;100.00;95004.63;5079346;28;20281;-62
2022/11/28 11:07:22;;;;;;;1999.90;999.90;;;;;;;6.71;100.00;94999.97;5079276;28;20227;-61
2022/11/28 11:09:48;;;;;;;1999.90;999.90;;;;;;;6.82;100.00;94998.03;5078981;28;20175;-63